createdAt,value
2023-05-08T00:02:24.892Z,81.00
2023-05-08T00:04:56.824Z,81.09
2023-05-08T00:07:28.750Z,80.53
2023-05-08T00:10:01.220Z,80.28
2023-05-08T00:12:32.886Z,80.66
2023-05-08T00:15:05.588Z,80.46
2023-05-08T00:17:35.933Z,80.58
2023-05-08T00:20:09.753Z,80.67
2023-05-08T00:22:41.865Z,80.56
2023-05-08T00:25:13.692Z,80.30
2023-05-08T00:27:45.331Z,81.13
2023-05-08T00:30:17.594Z,81.37
2023-05-08T00:32:49.462Z,81.50
2023-05-08T00:35:21.490Z,81.29
2023-05-08T00:37:53.203Z,81.55
2023-05-08T00:40:25.336Z,82.06
2023-05-08T00:42:57.120Z,82.20
2023-05-08T00:45:33.938Z,82.39
2023-05-08T00:48:07.995Z,82.38
2023-05-08T00:50:40.125Z,82.75
2023-05-08T00:53:12.814Z,83.20
2023-05-08T00:55:43.136Z,83.32
2023-05-08T00:58:16.553Z,83.03
2023-05-08T01:00:50.293Z,82.65
2023-05-08T01:03:23.901Z,82.71
2023-05-08T01:05:56.919Z,82.83
2023-05-08T01:08:27.380Z,82.65
2023-05-08T01:11:18.929Z,82.41
2023-05-08T01:14:08.885Z,82.17
2023-05-08T01:16:45.192Z,82.28
2023-05-08T01:19:44.520Z,82.38
2023-05-08T01:22:29.398Z,82.69
2023-05-08T01:25:38.634Z,82.63
2023-05-08T01:28:32.345Z,83.01
2023-05-08T01:31:17.676Z,83.06
2023-05-08T01:33:56.762Z,83.22
2023-05-08T01:36:41.030Z,83.54
2023-05-08T01:39:20.037Z,83.10
2023-05-08T01:42:01.726Z,83.24
2023-05-08T01:44:38.599Z,83.17
2023-05-08T01:47:13.227Z,82.94
2023-05-08T01:49:50.302Z,82.82
2023-05-08T01:52:29.007Z,82.59
2023-05-08T01:55:04.615Z,82.84
2023-05-08T01:57:39.348Z,82.90
2023-05-08T02:00:13.795Z,83.48
2023-05-08T02:02:48.538Z,83.14
2023-05-08T02:05:22.292Z,83.11
2023-05-08T02:07:55.546Z,83.65
2023-05-08T02:10:31.227Z,83.67
2023-05-08T02:13:05.366Z,83.14
2023-05-08T02:15:38.730Z,82.93
2023-05-08T02:18:13.012Z,82.96
2023-05-08T02:20:45.307Z,82.86
2023-05-08T02:23:19.000Z,83.09
2023-05-08T02:25:52.459Z,83.35
2023-05-08T02:28:25.745Z,83.32
2023-05-08T02:30:59.610Z,83.51
2023-05-08T02:33:33.966Z,83.71
2023-05-08T02:36:08.367Z,83.74
2023-05-08T02:38:42.763Z,83.78
2023-05-08T02:41:18.560Z,83.29
2023-05-08T02:43:52.675Z,83.35
2023-05-08T02:46:31.019Z,83.51
2023-05-08T02:49:06.450Z,83.75
2023-05-08T02:51:50.198Z,83.76
2023-05-08T02:54:30.222Z,83.67
2023-05-08T02:57:07.402Z,83.58
2023-05-08T02:59:45.734Z,83.87
2023-05-08T03:02:29.657Z,83.38
2023-05-08T03:05:09.258Z,83.73
2023-05-08T03:07:45.062Z,83.47
2023-05-08T03:10:19.695Z,83.28
2023-05-08T03:12:54.567Z,83.02
2023-05-08T03:15:32.964Z,83.59
2023-05-08T03:18:08.882Z,84.87
2023-05-08T03:20:44.614Z,85.83
2023-05-08T03:23:19.466Z,84.89
2023-05-08T03:25:52.440Z,83.79
2023-05-08T03:28:25.438Z,84.57
2023-05-08T03:30:59.964Z,85.35
2023-05-08T03:33:33.768Z,85.63
2023-05-08T03:36:07.105Z,86.72
2023-05-08T03:38:39.157Z,86.67
2023-05-08T03:41:12.685Z,87.35
2023-05-08T03:43:45.320Z,87.48
2023-05-08T03:46:20.248Z,87.04
2023-05-08T03:48:54.207Z,87.19
2023-05-08T03:51:27.907Z,87.45
2023-05-08T03:53:59.667Z,88.26
2023-05-08T03:56:31.969Z,88.45
2023-05-08T03:59:15.330Z,88.68
2023-05-08T04:01:56.207Z,89.04
2023-05-08T04:04:39.780Z,88.27
2023-05-08T04:07:17.016Z,87.65
2023-05-08T04:10:01.204Z,86.66
2023-05-08T04:12:37.088Z,87.35
2023-05-08T04:15:12.864Z,86.65
2023-05-08T04:17:48.853Z,85.91
2023-05-08T04:20:24.146Z,85.67
2023-05-08T04:22:58.106Z,85.20
2023-05-08T04:25:31.878Z,85.34
2023-05-08T04:28:04.166Z,86.70
2023-05-08T04:30:34.990Z,86.57
2023-05-08T04:33:08.560Z,86.48
2023-05-08T04:35:41.170Z,86.04
2023-05-08T04:38:13.154Z,85.34
2023-05-08T04:40:45.681Z,85.36
2023-05-08T04:43:17.607Z,85.20
2023-05-08T04:45:49.639Z,84.89
2023-05-08T04:48:21.434Z,84.89
2023-05-08T04:50:53.358Z,84.56
2023-05-08T04:53:25.607Z,84.51
2023-05-08T04:55:59.245Z,84.07
2023-05-08T04:58:31.341Z,83.84
2023-05-08T05:01:06.342Z,83.45
2023-05-08T05:03:38.607Z,83.80
2023-05-08T05:06:10.744Z,83.46
2023-05-08T05:08:41.892Z,82.41
2023-05-08T05:11:14.313Z,81.46
2023-05-08T05:13:46.257Z,81.26
2023-05-08T05:16:18.538Z,81.51
2023-05-08T05:18:50.993Z,81.40
2023-05-08T05:21:23.112Z,81.26
2023-05-08T05:23:55.056Z,80.89
2023-05-08T05:26:26.804Z,80.87
2023-05-08T05:28:59.135Z,80.40
2023-05-08T05:31:31.949Z,79.98
2023-05-08T05:34:02.631Z,79.18
2023-05-08T05:36:34.876Z,78.79
2023-05-08T05:39:06.947Z,78.58
2023-05-08T05:41:39.405Z,78.36
2023-05-08T05:44:11.234Z,78.20
2023-05-08T05:46:44.478Z,78.02
2023-05-08T05:49:16.784Z,77.91
2023-05-08T05:51:49.573Z,78.06
2023-05-08T05:54:21.791Z,77.74
2023-05-08T05:56:54.349Z,77.44
2023-05-08T05:59:26.407Z,77.00
2023-05-08T06:01:59.387Z,75.12
2023-05-08T06:04:31.514Z,74.21
2023-05-08T06:07:03.470Z,74.18
2023-05-08T06:09:36.588Z,73.50
2023-05-08T06:12:08.545Z,72.49
2023-05-08T06:14:40.828Z,72.31
2023-05-08T06:17:12.171Z,72.06
2023-05-08T06:19:44.087Z,71.63
2023-05-08T06:22:15.877Z,71.38
2023-05-08T06:24:48.113Z,71.74
2023-05-08T06:27:22.949Z,71.59
2023-05-08T06:29:55.325Z,71.72
2023-05-08T06:32:27.718Z,71.54
2023-05-08T06:34:59.468Z,71.78
2023-05-08T06:37:31.249Z,70.78
2023-05-08T06:40:12.258Z,70.52
2023-05-08T06:42:44.885Z,70.53
2023-05-08T06:45:17.091Z,69.71
2023-05-08T06:47:48.900Z,68.40
2023-05-08T06:50:21.764Z,68.59
2023-05-08T06:52:51.989Z,68.44
2023-05-08T06:55:24.421Z,67.81
2023-05-08T06:57:56.269Z,67.47
2023-05-08T07:00:28.637Z,67.52
2023-05-08T07:03:00.426Z,66.53
2023-05-08T07:05:32.511Z,65.23
2023-05-08T07:08:04.414Z,64.66
2023-05-08T07:10:36.241Z,64.03
2023-05-08T07:13:08.078Z,63.61
2023-05-08T07:15:40.138Z,63.99
2023-05-08T07:18:11.967Z,64.34
2023-05-08T07:20:43.983Z,63.95
2023-05-08T07:23:16.680Z,64.48
2023-05-08T07:25:48.570Z,63.80
2023-05-08T07:28:20.446Z,62.95
2023-05-08T07:30:52.681Z,62.50
2023-05-08T07:33:24.509Z,62.02
2023-05-08T07:35:56.440Z,62.19
2023-05-08T07:38:28.346Z,62.46
2023-05-08T07:41:02.219Z,62.82
2023-05-08T07:43:34.395Z,61.71
2023-05-08T07:46:06.563Z,62.50
2023-05-08T07:48:38.421Z,62.86
2023-05-08T07:51:11.203Z,62.49
2023-05-08T07:53:41.453Z,60.87
2023-05-08T07:56:13.268Z,60.05
2023-05-08T07:58:45.967Z,59.55
2023-05-08T08:01:18.369Z,59.79
2023-05-08T08:03:50.755Z,59.96
2023-05-08T08:06:22.783Z,59.20
2023-05-08T08:08:54.555Z,59.19
2023-05-08T08:11:26.353Z,59.77
2023-05-08T08:13:58.225Z,59.06
2023-05-08T08:16:33.524Z,57.94
2023-05-08T08:19:05.421Z,58.97
2023-05-08T08:21:37.357Z,59.88
2023-05-08T08:24:09.465Z,58.29
2023-05-08T08:26:41.216Z,58.39
2023-05-08T08:29:13.042Z,57.78
2023-05-08T08:31:44.914Z,58.41
2023-05-08T08:34:16.889Z,58.01
2023-05-08T08:36:48.660Z,57.80
2023-05-08T08:39:20.835Z,56.79
2023-05-08T08:41:52.786Z,57.64
2023-05-08T08:44:24.776Z,57.20
2023-05-08T08:46:59.096Z,57.10
2023-05-08T08:49:35.945Z,56.88
2023-05-08T08:52:13.122Z,56.56
2023-05-08T08:54:47.944Z,56.52
2023-05-08T08:57:21.254Z,56.86
2023-05-08T08:59:54.320Z,57.54
2023-05-08T09:02:27.829Z,57.04
2023-05-08T09:05:18.946Z,56.43
2023-05-08T09:07:51.543Z,56.09
2023-05-08T09:10:24.733Z,56.04
2023-05-08T09:12:56.855Z,56.39
2023-05-08T09:15:28.728Z,56.45
2023-05-08T09:18:01.796Z,56.02
2023-05-08T09:20:33.646Z,55.49
2023-05-08T09:23:05.497Z,55.60
2023-05-08T09:25:47.969Z,55.53
2023-05-08T09:28:20.663Z,55.16
2023-05-08T09:30:51.576Z,55.14
2023-05-08T09:33:25.303Z,53.49
2023-05-08T09:35:58.099Z,54.04
2023-05-08T09:38:40.687Z,54.95
2023-05-08T09:41:15.679Z,54.03
2023-05-08T09:44:02.978Z,50.97
2023-05-08T09:46:35.818Z,49.42
2023-05-08T09:49:05.995Z,48.73
2023-05-08T09:51:38.127Z,48.66
2023-05-08T09:54:19.608Z,48.39
2023-05-08T09:56:52.940Z,48.38
2023-05-08T09:59:30.780Z,47.06
2023-05-08T10:02:16.249Z,47.53
2023-05-08T10:04:48.293Z,47.46
2023-05-08T10:07:30.545Z,47.00
2023-05-08T10:10:04.295Z,45.75
2023-05-08T10:12:38.026Z,45.96
2023-05-08T10:15:12.106Z,45.27
2023-05-08T10:17:54.183Z,44.61
2023-05-08T10:20:30.275Z,45.01
2023-05-08T10:23:03.430Z,44.66
2023-05-08T10:25:37.235Z,45.05
2023-05-08T10:28:25.546Z,44.65
2023-05-08T10:31:00.807Z,45.52
2023-05-08T10:33:35.804Z,45.89
2023-05-08T10:36:09.978Z,44.69
2023-05-08T10:38:42.379Z,44.24
2023-05-08T10:41:16.598Z,44.08
2023-05-08T10:43:49.681Z,45.71
2023-05-08T10:46:29.608Z,45.01
2023-05-08T10:49:14.045Z,44.88
2023-05-08T10:51:54.690Z,44.11
2023-05-08T10:54:35.143Z,45.16
2023-05-08T10:57:14.092Z,45.60
2023-05-08T10:59:49.159Z,44.75
2023-05-08T11:02:30.337Z,44.95
2023-05-08T11:08:01.236Z,43.26
2023-05-08T11:10:36.985Z,43.97
2023-05-08T11:13:09.695Z,44.63
2023-05-08T11:15:40.510Z,44.31
2023-05-08T11:18:12.692Z,43.31
2023-05-08T11:20:56.105Z,42.87
2023-05-08T11:23:29.247Z,42.82
2023-05-08T11:26:06.051Z,43.17
2023-05-08T11:28:41.747Z,42.38
2023-05-08T11:31:13.519Z,41.82
2023-05-08T11:33:45.202Z,42.34
2023-05-08T11:36:20.931Z,42.41
2023-05-08T11:39:12.649Z,42.54
2023-05-08T11:41:44.373Z,41.57
2023-05-08T11:44:23.607Z,42.37
2023-05-08T11:46:58.510Z,41.16
2023-05-08T11:49:30.390Z,41.29
2023-05-08T11:52:04.253Z,41.19
2023-05-08T11:54:35.997Z,39.35
2023-05-08T11:57:07.749Z,39.84
2023-05-08T11:59:43.588Z,39.85
2023-05-08T12:02:15.404Z,40.01
2023-05-08T12:04:48.635Z,40.57
2023-05-08T12:07:20.674Z,40.36
2023-05-08T12:09:52.828Z,40.92
2023-05-08T12:12:24.651Z,40.43
2023-05-08T12:14:56.811Z,40.41
2023-05-08T12:17:28.448Z,41.01
2023-05-08T12:20:10.237Z,40.69
2023-05-08T12:22:43.059Z,39.76
2023-05-08T12:25:15.138Z,38.70
2023-05-08T12:27:47.754Z,38.38
2023-05-08T12:30:20.252Z,39.89
2023-05-08T12:32:52.512Z,39.81
2023-05-08T12:35:25.090Z,40.42
2023-05-08T12:38:01.493Z,40.04
2023-05-08T12:40:35.315Z,39.31
2023-05-08T12:43:07.240Z,38.91
2023-05-08T12:45:43.674Z,38.59
2023-05-08T12:48:16.909Z,38.51
2023-05-08T12:50:49.071Z,37.82
2023-05-08T12:53:22.768Z,38.50
2023-05-08T12:55:56.936Z,38.29
2023-05-08T12:58:30.518Z,38.20
2023-05-08T13:01:12.982Z,37.57
2023-05-08T13:03:47.094Z,37.05
2023-05-08T13:06:25.637Z,36.86
2023-05-08T13:08:57.725Z,36.97
2023-05-08T13:11:34.380Z,37.21
2023-05-08T13:14:06.203Z,36.84
2023-05-08T13:16:46.247Z,37.31
2023-05-08T13:19:18.919Z,38.06
2023-05-08T13:21:53.497Z,38.07
2023-05-08T13:24:25.849Z,38.84
2023-05-08T13:26:56.484Z,37.56
2023-05-08T13:29:28.419Z,37.66
2023-05-08T13:32:00.419Z,37.14
2023-05-08T13:34:32.230Z,37.31
2023-05-08T13:37:04.183Z,36.47
2023-05-08T13:39:37.448Z,35.62
2023-05-08T13:42:09.242Z,35.05
2023-05-08T13:44:40.970Z,35.60
2023-05-08T13:47:12.760Z,35.70
2023-05-08T13:49:46.941Z,36.24
2023-05-08T13:52:18.881Z,34.49
2023-05-08T13:54:50.876Z,34.59
2023-05-08T13:57:22.788Z,35.05
2023-05-08T13:59:54.758Z,35.46
2023-05-08T14:02:26.744Z,35.50
2023-05-08T14:04:58.876Z,35.30
2023-05-08T14:07:31.010Z,34.02
2023-05-08T14:10:03.073Z,33.98
2023-05-08T14:12:36.642Z,34.01
2023-05-08T14:15:11.923Z,34.00
2023-05-08T14:17:44.543Z,34.15
2023-05-08T14:20:16.533Z,34.03
2023-05-08T14:22:48.498Z,34.47
2023-05-08T14:25:20.966Z,34.97
2023-05-08T14:27:52.667Z,34.80
2023-05-08T14:30:25.045Z,34.72
2023-05-08T14:32:56.925Z,34.54
2023-05-08T14:35:28.887Z,33.83
2023-05-08T14:38:01.008Z,34.24
2023-05-08T14:40:33.097Z,34.35
2023-05-08T14:43:04.881Z,33.85
2023-05-08T14:45:37.399Z,33.57
2023-05-08T14:48:09.590Z,33.90
2023-05-08T14:50:40.390Z,33.14
2023-05-08T14:53:12.382Z,32.78
2023-05-08T14:55:44.753Z,33.34
2023-05-08T14:58:17.041Z,32.39
2023-05-08T15:00:49.176Z,32.31
2023-05-08T15:03:21.090Z,32.12
2023-05-08T15:05:52.999Z,31.68
2023-05-08T15:08:25.594Z,31.91
2023-05-08T15:10:57.363Z,31.58
2023-05-08T15:13:29.390Z,31.59
2023-05-08T15:16:01.458Z,31.65
2023-05-08T15:18:33.285Z,31.68
2023-05-08T15:21:05.472Z,32.23
2023-05-08T15:23:37.400Z,31.40
2023-05-08T15:26:09.440Z,31.80
2023-05-08T15:28:42.620Z,31.95
2023-05-08T15:31:14.728Z,31.55
2023-05-08T15:33:48.217Z,31.92
2023-05-08T15:36:20.740Z,32.17
2023-05-08T15:38:53.917Z,31.22
2023-05-08T15:41:26.083Z,31.21
2023-05-08T15:43:58.229Z,31.13
2023-05-08T15:46:30.267Z,30.93
2023-05-08T15:49:02.976Z,30.76
2023-05-08T15:51:35.368Z,31.07
2023-05-08T15:54:07.611Z,31.28
2023-05-08T15:56:39.664Z,31.22
2023-05-08T15:59:11.944Z,31.15
2023-05-08T16:01:44.161Z,31.00
2023-05-08T16:04:16.532Z,31.51
2023-05-08T16:06:48.375Z,30.94
2023-05-08T16:09:20.121Z,31.31
2023-05-08T16:11:51.952Z,30.99
2023-05-08T16:14:23.762Z,31.21
2023-05-08T16:16:55.841Z,30.54
2023-05-08T16:19:27.878Z,30.26
2023-05-08T16:22:00.043Z,30.23
2023-05-08T16:24:33.333Z,30.21
2023-05-08T16:27:05.428Z,29.79
2023-05-08T16:29:38.210Z,29.90
2023-05-08T16:32:10.168Z,29.88
2023-05-08T16:34:42.193Z,29.29
2023-05-08T16:37:14.251Z,28.86
2023-05-08T16:39:45.946Z,28.68
2023-05-08T16:42:18.963Z,29.04
2023-05-08T16:44:51.508Z,29.12
2023-05-08T16:47:23.584Z,29.50
2023-05-08T16:49:55.600Z,30.19
2023-05-08T16:52:27.499Z,31.24
2023-05-08T16:54:59.553Z,31.82
2023-05-08T16:57:31.580Z,32.71
2023-05-08T17:00:04.655Z,33.27
2023-05-08T17:02:36.816Z,34.09
2023-05-08T17:05:09.944Z,34.85
2023-05-08T17:07:41.812Z,35.26
2023-05-08T17:10:14.043Z,35.70
2023-05-08T17:12:45.929Z,35.65
2023-05-08T17:15:17.804Z,36.08
2023-05-08T17:17:50.407Z,36.16
2023-05-08T17:20:20.824Z,36.43
2023-05-08T17:22:53.805Z,36.30
2023-05-08T17:25:25.928Z,36.52
2023-05-08T17:27:58.567Z,37.13
2023-05-08T17:30:30.219Z,37.44
2023-05-08T17:33:03.679Z,37.36
2023-05-08T17:35:35.528Z,49.71
2023-05-08T17:38:07.219Z,58.67
2023-05-08T17:40:39.992Z,50.08
2023-05-08T17:43:12.421Z,60.75
2023-05-08T17:45:45.560Z,57.03
2023-05-08T17:48:17.435Z,54.78
2023-05-08T17:50:50.213Z,52.37
2023-05-08T17:53:22.052Z,49.93
2023-05-08T17:55:54.780Z,51.01
2023-05-08T17:58:26.831Z,44.58
2023-05-08T18:00:58.953Z,49.33
2023-05-08T18:03:31.836Z,55.71
2023-05-08T18:06:03.879Z,51.89
2023-05-08T18:08:35.791Z,53.30
2023-05-08T18:11:07.900Z,51.49
2023-05-08T18:13:40.129Z,48.62
2023-05-08T18:16:11.909Z,41.13
2023-05-08T18:18:43.832Z,41.45
2023-05-08T18:21:15.717Z,42.05
2023-05-08T18:23:47.607Z,43.36
2023-05-08T18:26:19.710Z,44.41
2023-05-08T18:28:51.623Z,44.12
2023-05-08T18:31:23.645Z,44.14
2023-05-08T18:33:55.395Z,44.69
2023-05-08T18:36:28.010Z,44.72
2023-05-08T18:39:00.062Z,44.81
2023-05-08T18:41:31.798Z,45.21
2023-05-08T18:44:05.134Z,45.39
2023-05-08T18:46:37.107Z,45.85
2023-05-08T18:49:09.229Z,46.12
2023-05-08T18:51:42.002Z,46.92
2023-05-08T18:54:13.866Z,46.98
2023-05-08T18:56:45.996Z,46.92
2023-05-08T18:59:17.720Z,47.11
2023-05-08T19:01:51.023Z,47.47
2023-05-08T19:04:22.909Z,47.73
2023-05-08T19:06:54.799Z,47.72
2023-05-08T19:09:27.121Z,48.49
2023-05-08T19:11:59.453Z,48.54
2023-05-08T19:14:31.271Z,48.56
2023-05-08T19:17:03.125Z,49.10
2023-05-08T19:19:35.124Z,49.60
2023-05-08T19:22:07.188Z,49.53
2023-05-08T19:24:39.767Z,49.53
2023-05-08T19:27:11.581Z,50.07
2023-05-08T19:29:43.498Z,50.22
2023-05-08T19:32:15.245Z,50.31
2023-05-08T19:34:47.075Z,50.86
2023-05-08T19:37:19.098Z,51.25
2023-05-08T19:39:53.866Z,51.14
2023-05-08T19:42:25.893Z,51.53
2023-05-08T19:44:57.653Z,51.63
2023-05-08T19:47:29.487Z,51.72
2023-05-08T19:50:01.321Z,52.88
2023-05-08T19:52:33.359Z,53.05
2023-05-08T19:55:05.439Z,52.91
2023-05-08T19:57:37.507Z,53.03
2023-05-08T20:00:11.255Z,53.53
2023-05-08T20:02:43.370Z,53.85
2023-05-08T20:05:22.411Z,54.03
2023-05-08T20:07:55.030Z,53.80
2023-05-08T20:10:27.312Z,53.94
2023-05-08T20:12:59.141Z,54.20
2023-05-08T20:15:31.049Z,54.47
2023-05-08T20:18:03.076Z,54.27
2023-05-08T20:20:35.444Z,53.94
2023-05-08T20:23:07.257Z,54.04
2023-05-08T20:25:38.981Z,53.92
2023-05-08T20:28:10.730Z,54.28
2023-05-08T20:30:42.945Z,54.19
2023-05-08T20:33:14.679Z,54.25
2023-05-08T20:35:46.763Z,54.92
2023-05-08T20:38:18.975Z,55.31
2023-05-08T20:40:51.203Z,55.69
2023-05-08T20:43:22.917Z,55.58
2023-05-08T20:45:54.738Z,55.83
2023-05-08T20:48:26.549Z,56.25
2023-05-08T20:50:58.432Z,55.92
2023-05-08T20:53:30.496Z,55.96
2023-05-08T20:56:06.541Z,56.35
2023-05-08T20:58:39.141Z,56.16
2023-05-08T21:01:12.053Z,56.11
2023-05-08T21:03:43.834Z,55.98
2023-05-08T21:06:15.876Z,56.24
2023-05-08T21:08:47.838Z,56.45
2023-05-08T21:11:19.613Z,56.70
2023-05-08T21:13:51.374Z,56.72
2023-05-08T21:16:24.841Z,56.47
2023-05-08T21:18:58.535Z,56.38
2023-05-08T21:21:30.489Z,56.52
2023-05-08T21:24:02.676Z,56.90
2023-05-08T21:26:34.490Z,56.78
2023-05-08T21:29:07.294Z,56.61
2023-05-08T21:31:37.698Z,56.49
2023-05-08T21:34:09.580Z,56.57
2023-05-08T21:36:42.085Z,56.47
2023-05-08T21:39:14.524Z,56.25
2023-05-08T21:41:46.968Z,56.42
2023-05-08T21:44:18.738Z,56.74
2023-05-08T21:46:50.776Z,56.67
2023-05-08T21:49:22.655Z,56.86
2023-05-08T21:51:54.761Z,56.88
2023-05-08T21:54:26.533Z,56.88
2023-05-08T21:56:58.243Z,57.45
2023-05-08T21:59:30.230Z,57.80
2023-05-08T22:02:02.925Z,58.06
2023-05-08T22:04:34.843Z,58.13
2023-05-08T22:07:06.604Z,58.67
2023-05-08T22:09:38.334Z,59.30
2023-05-08T22:12:11.274Z,58.83
2023-05-08T22:14:43.035Z,58.61
2023-05-08T22:17:14.803Z,58.92
2023-05-08T22:19:46.554Z,59.24
2023-05-08T22:22:18.421Z,58.64
2023-05-08T22:24:50.201Z,58.46
2023-05-08T22:27:21.911Z,59.09
2023-05-08T22:29:53.626Z,58.91
2023-05-08T22:32:25.439Z,59.35
2023-05-08T22:34:57.198Z,59.70
2023-05-08T22:37:30.059Z,59.20
2023-05-08T22:40:02.010Z,59.22
2023-05-08T22:42:33.751Z,59.35
2023-05-08T22:45:06.134Z,59.60
2023-05-08T22:47:38.339Z,59.52
2023-05-08T22:50:11.772Z,60.11
2023-05-08T22:52:44.042Z,60.24
2023-05-08T22:55:16.806Z,60.09
2023-05-08T22:57:48.861Z,60.38
2023-05-08T23:00:21.795Z,60.67
2023-05-08T23:02:52.178Z,60.26
2023-05-08T23:05:24.530Z,60.48
2023-05-08T23:07:56.265Z,60.64
2023-05-08T23:10:27.909Z,60.99
2023-05-08T23:13:00.039Z,61.38
2023-05-08T23:15:32.192Z,61.87
2023-05-08T23:18:04.359Z,61.50
2023-05-08T23:20:36.358Z,61.46
2023-05-08T23:23:08.169Z,61.48
2023-05-08T23:25:39.858Z,61.93
2023-05-08T23:28:11.920Z,61.43
2023-05-08T23:30:43.641Z,61.58
2023-05-08T23:33:15.749Z,61.39
2023-05-08T23:35:47.469Z,61.57
2023-05-08T23:38:19.509Z,61.20
2023-05-08T23:40:51.270Z,61.09
2023-05-08T23:43:22.968Z,61.92
2023-05-08T23:45:54.647Z,61.55
2023-05-08T23:48:26.507Z,61.57
2023-05-08T23:50:58.543Z,61.84
2023-05-08T23:53:30.621Z,61.95
2023-05-08T23:56:02.429Z,61.41
2023-05-08T23:58:34.145Z,61.40
